Nanticoke — WDC4353 — position and weather

sailwx.info

Track history (hours):
 
Tides and Currents Weather Stations Pressure Air Temp Water Temp Dewpoint Dewpoint Depression Visibility Wind Speed Wind Dir Waves Ship Positions

Nanticoke

Owner: Vane Line Bunkering, Baltimore, MD. More information available from US FCC via Universal Licensing System and Coast Guard Vessel Documentation Center.

Last reported at 2015-Aug-01 09:33 UTC. Time now 2015-Aug-01 09:46 UTC.
Position N 40°38' W 074°12'.

Length 34 m; draft 4.7 m.

Type: Towing. MMSI: 367023480.

Date/timePositionNaut miles runAvg speedWind from/ knotsBaromVisibWave heightAir tempDewpointWater temp
2015-Aug-01 09:33N 40°38' W 074°12'0 0.0
2015-Aug-01 08:31N 40°38' W 074°12'0 0.0
2015-Aug-01 07:31N 40°38' W 074°12'0 0.0
2015-Aug-01 06:32N 40°38' W 074°12'0 0.0
2015-Aug-01 05:33N 40°38' W 074°12'0 0.0
2015-Aug-01 04:33N 40°38' W 074°12'0 0.0
2015-Aug-01 03:31N 40°38' W 074°12'0 0.0
2015-Aug-01 02:29N 40°38' W 074°12'0 0.0
2015-Aug-01 01:32N 40°38' W 074°12'0 0.0
2015-Aug-01 00:33N 40°38' W 074°12'0 0.0
2015-Jul-31 23:33N 40°38' W 074°12'0 0.0
2015-Jul-31 22:28N 40°38' W 074°12'0 0.0
2015-Jul-31 21:32N 40°38' W 074°12'0 0.0
2015-Jul-31 20:32N 40°38' W 074°12'0 0.0
2015-Jul-31 19:33N 40°38' W 074°12'0 0.0
2015-Jul-31 18:31N 40°38' W 074°12'0 0.0
2015-Jul-31 17:31N 40°38' W 074°12'0 0.0
2015-Jul-31 16:32N 40°38' W 074°12'0 0.0
2015-Jul-31 15:30N 40°38' W 074°12'0 0.0
2015-Jul-31 14:33N 40°38' W 074°12'0 0.0
2015-Jul-31 13:28N 40°38' W 074°12'0 0.0
2015-Jul-31 12:32N 40°38' W 074°12'0 0.0
2015-Jul-31 11:33N 40°38' W 074°12'0 0.0
2015-Jul-31 10:33N 40°38' W 074°12'0 0.0
2015-Jul-31 09:32N 40°38' W 074°12'1 1.5
2015-Jul-31 08:33N 40°39' W 074°11'6 6.4
2015-Jul-31 07:33N 40°40' W 074°03'0 0.1
2015-Jul-31 06:31N 40°40' W 074°03'0 0.0
2015-Jul-31 05:32N 40°40' W 074°03'0 0.0
2015-Jul-31 04:32N 40°40' W 074°03'0 0.0
2015-Jul-31 03:33N 40°40' W 074°03'0 0.2
2015-Jul-31 02:31N 40°40' W 074°03'0 0.0
2015-Jul-31 01:31N 40°40' W 074°03'0 0.0
2015-Jul-31 00:32N 40°40' W 074°03'0 0.0
2015-Jul-30 23:32N 40°40' W 074°03'0 0.1
2015-Jul-30 22:33N 40°40' W 074°03'0 0.1
2015-Jul-30 21:31N 40°40' W 074°02'0 0.2
2015-Jul-30 20:31N 40°40' W 074°03'0 0.1
2015-Jul-30 19:32N 40°40' W 074°03'0 0.0
2015-Jul-30 18:33N 40°40' W 074°03'0 0.0
2015-Jul-30 17:33N 40°40' W 074°03'0 0.0
2015-Jul-30 16:31N 40°40' W 074°03'0 0.0
2015-Jul-30 15:32N 40°40' W 074°03'0 0.2
2015-Jul-30 14:32N 40°40' W 074°03'0 0.0
2015-Jul-30 13:33N 40°40' W 074°03'0 0.0
2015-Jul-30 12:33N 40°40' W 074°03'0 0.0
2015-Jul-30 11:31N 40°40' W 074°03'0 0.0
2015-Jul-30 10:32N 40°40' W 074°03'0 0.2
2015-Jul-30 09:32N 40°40' W 074°03'0 0.0
2015-Jul-30 08:33N 40°40' W 074°03'0 0.0
2015-Jul-30 07:33N 40°40' W 074°03'0 0.0
2015-Jul-30 06:31N 40°40' W 074°03'0 0.0
2015-Jul-30 05:32N 40°40' W 074°03'0 0.0
2015-Jul-30 04:32N 40°40' W 074°03'0 0.0
2015-Jul-30 03:33N 40°40' W 074°03'0 0.2
2015-Jul-30 02:31N 40°40' W 074°03'0 0.0
2015-Jul-30 01:31N 40°40' W 074°03'0 0.5
2015-Jul-30 00:33N 40°39' W 074°03'2 2.0
2015-Jul-29 23:33N 40°40' W 074°00'0 0.0
2015-Jul-29 22:31N 40°40' W 074°00'0 0.0
2015-Jul-29 21:31N 40°40' W 074°00'1 1.5
2015-Jul-29 20:33N 40°40' W 074°02'5 5.5
2015-Jul-29 19:33N 40°45' W 073°58'6 6.2
2015-Jul-29 18:34N 40°48' W 073°51'7 7.0
2015-Jul-29 17:33N 40°53' W 073°44'8 7.7
2015-Jul-29 16:33N 40°57' W 073°35'8 8.0
2015-Jul-29 15:33N 41°00' W 073°26'9 9.4
2015-Jul-29 14:33N 41°01' W 073°13'10 9.8
2015-Jul-29 13:33N 41°02' W 073°00'8 7.8
2015-Jul-29 12:33N 41°01' W 072°50'8 8.0
2015-Jul-29 11:33N 41°00' W 072°40'1 0.7
2015-Jul-29 10:31N 41°00' W 072°39'0 0.0
2015-Jul-29 09:31N 41°00' W 072°39'0 0.0
2015-Jul-29 08:32N 41°00' W 072°39'0 0.0
2015-Jul-29 07:33N 41°00' W 072°39'0 0.0
2015-Jul-29 06:33N 41°00' W 072°39'0 0.0
2015-Jul-29 05:31N 41°00' W 072°39'0 0.0
2015-Jul-29 04:32N 41°00' W 072°39'0 0.0
2015-Jul-29 03:32N 41°00' W 072°39'0 0.0
2015-Jul-29 02:33N 41°00' W 072°39'0 0.0
2015-Jul-29 01:31N 41°00' W 072°39'0 0.0
2015-Jul-29 00:31N 41°00' W 072°39'0 0.0
2015-Jul-28 23:32N 41°00' W 072°39'0 0.0
2015-Jul-28 22:33N 41°00' W 072°39'0 0.0
2015-Jul-28 21:33N 41°00' W 072°39'0 0.0
2015-Jul-28 20:25N 41°00' W 072°39'0 0.0
2015-Jul-28 19:32N 41°00' W 072°39'0 0.0
2015-Jul-28 18:32N 41°00' W 072°39'0 0.1
2015-Jul-28 17:33N 41°00' W 072°39'1 0.5
2015-Jul-28 16:32N 40°60' W 072°39'0 0.0
2015-Jul-28 15:33N 40°60' W 072°39'0 0.0
2015-Jul-28 14:33N 40°60' W 072°39'0 0.1
2015-Jul-28 13:31N 40°60' W 072°39'0 0.0
2015-Jul-28 12:32N 40°60' W 072°39'0 0.1
2015-Jul-28 11:32N 40°60' W 072°39'0 0.1
2015-Jul-28 10:33N 40°60' W 072°39'0 0.0
2015-Jul-28 09:31N 40°60' W 072°40'0 0.0
2015-Jul-28 08:31N 40°60' W 072°39'0 0.1
2015-Jul-28 07:29N 40°60' W 072°39'0 0.1
2015-Jul-28 06:33N 40°60' W 072°39'0 0.0
2015-Jul-28 05:33N 40°60' W 072°39'5 5.4
2015-Jul-28 04:33N 41°01' W 072°46'1110.7
2015-Jul-28 03:33N 41°02' W 073°00'1110.6
2015-Jul-28 02:33N 41°01' W 073°15'1010.1
2015-Jul-28 01:33N 40°59' W 073°28'1010.0
2015-Jul-28 00:33N 40°55' W 073°39'9 9.3
2015-Jul-27 23:33N 40°48' W 073°48'9 8.8
2015-Jul-27 22:33N 40°44' W 073°58'3 3.1
2015-Jul-27 21:33N 40°47' W 074°00'3 2.7
2015-Jul-27 20:33N 40°49' W 073°58'0 0.0
2015-Jul-27 19:33N 40°49' W 073°58'0 0.2
2015-Jul-27 18:31N 40°49' W 073°58'0 0.0
2015-Jul-27 17:32N 40°49' W 073°58'0 0.0
2015-Jul-27 16:29N 40°49' W 073°58'0 0.0
2015-Jul-27 15:33N 40°49' W 073°58'0 0.0
2015-Jul-27 14:33N 40°49' W 073°58'0 0.0
2015-Jul-27 13:31N 40°49' W 073°58'0 0.1
2015-Jul-27 12:32N 40°49' W 073°58'0 0.2
2015-Jul-27 11:32N 40°49' W 073°58'0 0.0
2015-Jul-27 10:33N 40°49' W 073°58'0 0.0
2015-Jul-27 09:31N 40°49' W 073°58'0 0.0
2015-Jul-27 08:31N 40°49' W 073°58'0 0.1
2015-Jul-27 07:32N 40°49' W 073°58'0 0.0
2015-Jul-27 06:33N 40°49' W 073°58'0 0.0
2015-Jul-27 05:33N 40°49' W 073°58'0 0.0
2015-Jul-27 04:31N 40°49' W 073°58'0 0.0
2015-Jul-27 03:32N 40°49' W 073°58'0 0.2
2015-Jul-27 02:32N 40°49' W 073°58'0 0.1
2015-Jul-27 01:33N 40°49' W 073°58'0 0.0
2015-Jul-27 00:31N 40°49' W 073°58'0 0.0
2015-Jul-26 23:31N 40°49' W 073°58'0 0.0
2015-Jul-26 22:32N 40°49' W 073°58'0 0.0
2015-Jul-26 21:30N 40°49' W 073°58'0 0.0
2015-Jul-26 20:33N 40°49' W 073°58'0 0.0
2015-Jul-26 19:31N 40°49' W 073°58'0 0.0
2015-Jul-26 18:32N 40°49' W 073°58'0 0.2
2015-Jul-26 17:26N 40°49' W 073°58'0 0.0
2015-Jul-26 16:33N 40°49' W 073°58'0 0.0
2015-Jul-26 15:31N 40°49' W 073°58'0 0.0
2015-Jul-26 14:31N 40°49' W 073°58'0 0.0
2015-Jul-26 13:32N 40°49' W 073°58'0 0.0
2015-Jul-26 12:33N 40°49' W 073°58'0 0.2
2015-Jul-26 11:33N 40°49' W 073°58'0 0.0
2015-Jul-26 10:31N 40°49' W 073°58'0 0.0
2015-Jul-26 09:32N 40°49' W 073°58'0 0.0
2015-Jul-26 08:32N 40°49' W 073°58'0 0.0
2015-Jul-26 07:33N 40°49' W 073°58'0 0.2
2015-Jul-26 06:34N 40°49' W 073°58'0 0.0
2015-Jul-26 05:31N 40°49' W 073°58'0 0.0
2015-Jul-26 04:32N 40°49' W 073°58'0 0.0
2015-Jul-26 03:32N 40°49' W 073°58'0 0.0
2015-Jul-26 02:33N 40°49' W 073°58'0 0.1
2015-Jul-26 01:31N 40°49' W 073°58'0 0.1
2015-Jul-26 00:31N 40°49' W 073°58'0 0.1
2015-Jul-25 23:32N 40°49' W 073°58'0 0.0
2015-Jul-25 22:33N 40°49' W 073°58'0 0.0
2015-Jul-25 21:33N 40°49' W 073°58'0 0.0
2015-Jul-25 20:31N 40°49' W 073°58'0 0.0
2015-Jul-25 19:32N 40°49' W 073°58'0 0.0
2015-Jul-25 18:32N 40°49' W 073°58'0 0.3
2015-Jul-25 17:33N 40°49' W 073°58'0 0.0
2015-Jul-25 16:31N 40°49' W 073°58'0 0.0
2015-Jul-25 15:31N 40°49' W 073°58'0 0.0
2015-Jul-25 14:29N 40°49' W 073°58'0 0.0
2015-Jul-25 13:33N 40°49' W 073°58'0 0.0
2015-Jul-25 12:33N 40°49' W 073°58'0 0.0
2015-Jul-25 11:31N 40°49' W 073°58'0 0.0
2015-Jul-25 10:32N 40°49' W 073°58'0 0.2
2015-Jul-25 09:32N 40°49' W 073°58'0 0.0
2015-Jul-25 08:33N 40°49' W 073°58'0 0.0
2015-Jul-25 07:28N 40°49' W 073°58'0 0.2
2015-Jul-25 06:31N 40°49' W 073°58'0 0.0
2015-Jul-25 05:32N 40°49' W 073°58'0 0.0
2015-Jul-25 04:33N 40°49' W 073°58'0 0.0
2015-Jul-25 03:33N 40°49' W 073°58'0 0.0
2015-Jul-25 02:31N 40°49' W 073°58'0 0.0
2015-Jul-25 01:32N 40°49' W 073°58'0 0.0
2015-Jul-25 00:32N 40°49' W 073°58'0 0.0
2015-Jul-24 23:33N 40°49' W 073°58'0 0.2
2015-Jul-24 22:31N 40°49' W 073°58'0 0.0
2015-Jul-24 21:31N 40°49' W 073°58'0 0.0
2015-Jul-24 20:32N 40°49' W 073°58'4 4.3
2015-Jul-24 19:33N 40°45' W 074°01'6 6.2
2015-Jul-24 18:33N 40°39' W 074°03'0 0.1
2015-Jul-24 17:31N 40°39' W 074°03'0 0.1
2015-Jul-24 16:31N 40°39' W 074°03'0 0.1
2015-Jul-24 15:32N 40°39' W 074°03'0 0.0
2015-Jul-24 14:33N 40°39' W 074°03'0 0.0
2015-Jul-24 13:33N 40°39' W 074°03'0 0.0
2015-Jul-24 12:31N 40°39' W 074°03'0 0.0
2015-Jul-24 11:32N 40°39' W 074°03'0 0.0
2015-Jul-24 10:32N 40°39' W 074°03'0 0.0
2015-Jul-24 09:33N 40°39' W 074°03'0 0.0
2015-Jul-24 08:31N 40°39' W 074°03'0 0.1
2015-Jul-24 07:31N 40°39' W 074°03'0 0.1
2015-Jul-24 06:32N 40°39' W 074°03'0 0.1
2015-Jul-24 05:33N 40°39' W 074°03'0 0.1
2015-Jul-24 04:33N 40°39' W 074°03'0 0.0
2015-Jul-24 03:31N 40°39' W 074°03'0 0.0
2015-Jul-24 02:31N 40°39' W 074°03'0 0.0
2015-Jul-24 01:32N 40°39' W 074°03'0 0.0
2015-Jul-24 00:33N 40°39' W 074°03'0 0.0
2015-Jul-23 23:33N 40°39' W 074°03'0 0.0
2015-Jul-23 22:31N 40°39' W 074°03'0 0.0
2015-Jul-23 21:32N 40°39' W 074°03'0 0.1
2015-Jul-23 20:32N 40°39' W 074°03'0 0.0
2015-Jul-23 19:33N 40°39' W 074°03'0 0.0
2015-Jul-23 18:31N 40°39' W 074°03'0 0.0
2015-Jul-23 17:31N 40°39' W 074°03'0 0.0
2015-Jul-23 16:32N 40°39' W 074°03'0 0.1
2015-Jul-23 15:33N 40°39' W 074°03'0 0.1
2015-Jul-23 14:33N 40°39' W 074°03'0 0.0
2015-Jul-23 13:31N 40°39' W 074°03'0 0.0
2015-Jul-23 12:31N 40°39' W 074°03'0 0.0
2015-Jul-23 11:32N 40°39' W 074°03'0 0.0
2015-Jul-23 10:33N 40°39' W 074°03'0 0.0
2015-Jul-23 09:33N 40°39' W 074°03'0 0.0
2015-Jul-23 08:31N 40°39' W 074°03'0 0.0
2015-Jul-23 07:32N 40°39' W 074°03'0 0.0
2015-Jul-23 06:32N 40°39' W 074°03'0 0.0
2015-Jul-23 05:33N 40°39' W 074°03'0 0.0
2015-Jul-23 04:33N 40°39' W 074°03'0 0.0
2015-Jul-23 03:31N 40°39' W 074°03'0 0.0
2015-Jul-23 02:32N 40°39' W 074°03'0 0.0
2015-Jul-23 01:32N 40°39' W 074°03'0 0.0
2015-Jul-23 00:33N 40°39' W 074°03'0 0.0
2015-Jul-22 23:31N 40°39' W 074°03'0 0.0
2015-Jul-22 22:31N 40°39' W 074°03'0 0.0
2015-Jul-22 21:32N 40°39' W 074°03'0 0.5
2015-Jul-22 20:33N 40°39' W 074°02'2 1.7
2015-Jul-22 19:31N 40°40' W 074°00'0 0.0
2015-Jul-22 18:31N 40°40' W 074°00'0 0.0
2015-Jul-22 17:32N 40°40' W 074°00'0 0.0
2015-Jul-22 16:33N 40°40' W 074°00'0 0.0
2015-Jul-22 15:33N 40°40' W 074°00'2 2.1
2015-Jul-22 14:33N 40°39' W 074°03'0 0.0
2015-Jul-22 13:31N 40°39' W 074°03'0 0.0
2015-Jul-22 12:32N 40°39' W 074°03'0 0.0
2015-Jul-22 11:32N 40°39' W 074°03'0 0.0
2015-Jul-22 10:33N 40°39' W 074°03'  
Track history (hours):
 
Tides and Currents Weather Stations Pressure Air Temp Water Temp Dewpoint Dewpoint Depression Visibility Wind Speed Wind Dir Waves Ship Positions

Nanticoke

Owner: Vane Line Bunkering, Baltimore, MD. More information available from US FCC via Universal Licensing System and Coast Guard Vessel Documentation Center.

Last reported at 2015-Aug-01 09:33 UTC. Time now 2015-Aug-01 09:46 UTC.
Position N 40°38' W 074°12'.

Length 34 m; draft 4.7 m.

Type: Towing. MMSI: 367023480.

Date/timePositionNaut miles runAvg speedWind from/ knotsBaromVisibWave heightAir tempDewpointWater temp
2015-Aug-01 09:33N 40°38' W 074°12'0 0.0
2015-Aug-01 08:31N 40°38' W 074°12'0 0.0
2015-Aug-01 07:31N 40°38' W 074°12'0 0.0
2015-Aug-01 06:32N 40°38' W 074°12'0 0.0
2015-Aug-01 05:33N 40°38' W 074°12'0 0.0
2015-Aug-01 04:33N 40°38' W 074°12'0 0.0
2015-Aug-01 03:31N 40°38' W 074°12'0 0.0
2015-Aug-01 02:29N 40°38' W 074°12'0 0.0
2015-Aug-01 01:32N 40°38' W 074°12'0 0.0
2015-Aug-01 00:33N 40°38' W 074°12'0 0.0
2015-Jul-31 23:33N 40°38' W 074°12'0 0.0
2015-Jul-31 22:28N 40°38' W 074°12'0 0.0
2015-Jul-31 21:32N 40°38' W 074°12'0 0.0
2015-Jul-31 20:32N 40°38' W 074°12'0 0.0
2015-Jul-31 19:33N 40°38' W 074°12'0 0.0
2015-Jul-31 18:31N 40°38' W 074°12'0 0.0
2015-Jul-31 17:31N 40°38' W 074°12'0 0.0
2015-Jul-31 16:32N 40°38' W 074°12'0 0.0
2015-Jul-31 15:30N 40°38' W 074°12'0 0.0
2015-Jul-31 14:33N 40°38' W 074°12'0 0.0
2015-Jul-31 13:28N 40°38' W 074°12'0 0.0
2015-Jul-31 12:32N 40°38' W 074°12'0 0.0
2015-Jul-31 11:33N 40°38' W 074°12'0 0.0
2015-Jul-31 10:33N 40°38' W 074°12'0 0.0
2015-Jul-31 09:32N 40°38' W 074°12'1 1.5
2015-Jul-31 08:33N 40°39' W 074°11'6 6.4
2015-Jul-31 07:33N 40°40' W 074°03'0 0.1
2015-Jul-31 06:31N 40°40' W 074°03'0 0.0
2015-Jul-31 05:32N 40°40' W 074°03'0 0.0
2015-Jul-31 04:32N 40°40' W 074°03'0 0.0
2015-Jul-31 03:33N 40°40' W 074°03'0 0.2
2015-Jul-31 02:31N 40°40' W 074°03'0 0.0
2015-Jul-31 01:31N 40°40' W 074°03'0 0.0
2015-Jul-31 00:32N 40°40' W 074°03'0 0.0
2015-Jul-30 23:32N 40°40' W 074°03'0 0.1
2015-Jul-30 22:33N 40°40' W 074°03'0 0.1
2015-Jul-30 21:31N 40°40' W 074°02'0 0.2
2015-Jul-30 20:31N 40°40' W 074°03'0 0.1
2015-Jul-30 19:32N 40°40' W 074°03'0 0.0
2015-Jul-30 18:33N 40°40' W 074°03'0 0.0
2015-Jul-30 17:33N 40°40' W 074°03'0 0.0
2015-Jul-30 16:31N 40°40' W 074°03'0 0.0
2015-Jul-30 15:32N 40°40' W 074°03'0 0.2
2015-Jul-30 14:32N 40°40' W 074°03'0 0.0
2015-Jul-30 13:33N 40°40' W 074°03'0 0.0
2015-Jul-30 12:33N 40°40' W 074°03'0 0.0
2015-Jul-30 11:31N 40°40' W 074°03'0 0.0
2015-Jul-30 10:32N 40°40' W 074°03'0 0.2
2015-Jul-30 09:32N 40°40' W 074°03'0 0.0
2015-Jul-30 08:33N 40°40' W 074°03'0 0.0
2015-Jul-30 07:33N 40°40' W 074°03'0 0.0
2015-Jul-30 06:31N 40°40' W 074°03'0 0.0
2015-Jul-30 05:32N 40°40' W 074°03'0 0.0
2015-Jul-30 04:32N 40°40' W 074°03'0 0.0
2015-Jul-30 03:33N 40°40' W 074°03'0 0.2
2015-Jul-30 02:31N 40°40' W 074°03'0 0.0
2015-Jul-30 01:31N 40°40' W 074°03'0 0.5
2015-Jul-30 00:33N 40°39' W 074°03'2 2.0
2015-Jul-29 23:33N 40°40' W 074°00'0 0.0
2015-Jul-29 22:31N 40°40' W 074°00'0 0.0
2015-Jul-29 21:31N 40°40' W 074°00'1 1.5
2015-Jul-29 20:33N 40°40' W 074°02'5 5.5
2015-Jul-29 19:33N 40°45' W 073°58'6 6.2
2015-Jul-29 18:34N 40°48' W 073°51'7 7.0
2015-Jul-29 17:33N 40°53' W 073°44'8 7.7
2015-Jul-29 16:33N 40°57' W 073°35'8 8.0
2015-Jul-29 15:33N 41°00' W 073°26'9 9.4
2015-Jul-29 14:33N 41°01' W 073°13'10 9.8
2015-Jul-29 13:33N 41°02' W 073°00'8 7.8
2015-Jul-29 12:33N 41°01' W 072°50'8 8.0
2015-Jul-29 11:33N 41°00' W 072°40'1 0.7
2015-Jul-29 10:31N 41°00' W 072°39'0 0.0
2015-Jul-29 09:31N 41°00' W 072°39'0 0.0
2015-Jul-29 08:32N 41°00' W 072°39'0 0.0
2015-Jul-29 07:33N 41°00' W 072°39'0 0.0
2015-Jul-29 06:33N 41°00' W 072°39'0 0.0
2015-Jul-29 05:31N 41°00' W 072°39'0 0.0
2015-Jul-29 04:32N 41°00' W 072°39'0 0.0
2015-Jul-29 03:32N 41°00' W 072°39'0 0.0
2015-Jul-29 02:33N 41°00' W 072°39'0 0.0
2015-Jul-29 01:31N 41°00' W 072°39'0 0.0
2015-Jul-29 00:31N 41°00' W 072°39'0 0.0
2015-Jul-28 23:32N 41°00' W 072°39'0 0.0
2015-Jul-28 22:33N 41°00' W 072°39'0 0.0
2015-Jul-28 21:33N 41°00' W 072°39'0 0.0
2015-Jul-28 20:25N 41°00' W 072°39'0 0.0
2015-Jul-28 19:32N 41°00' W 072°39'0 0.0
2015-Jul-28 18:32N 41°00' W 072°39'0 0.1
2015-Jul-28 17:33N 41°00' W 072°39'1 0.5
2015-Jul-28 16:32N 40°60' W 072°39'0 0.0
2015-Jul-28 15:33N 40°60' W 072°39'0 0.0
2015-Jul-28 14:33N 40°60' W 072°39'0 0.1
2015-Jul-28 13:31N 40°60' W 072°39'0 0.0
2015-Jul-28 12:32N 40°60' W 072°39'0 0.1
2015-Jul-28 11:32N 40°60' W 072°39'0 0.1
2015-Jul-28 10:33N 40°60' W 072°39'0 0.0
2015-Jul-28 09:31N 40°60' W 072°40'0 0.0
2015-Jul-28 08:31N 40°60' W 072°39'0 0.1
2015-Jul-28 07:29N 40°60' W 072°39'0 0.1
2015-Jul-28 06:33N 40°60' W 072°39'0 0.0
2015-Jul-28 05:33N 40°60' W 072°39'5 5.4
2015-Jul-28 04:33N 41°01' W 072°46'1110.7
2015-Jul-28 03:33N 41°02' W 073°00'1110.6
2015-Jul-28 02:33N 41°01' W 073°15'1010.1
2015-Jul-28 01:33N 40°59' W 073°28'1010.0
2015-Jul-28 00:33N 40°55' W 073°39'9 9.3
2015-Jul-27 23:33N 40°48' W 073°48'9 8.8
2015-Jul-27 22:33N 40°44' W 073°58'3 3.1
2015-Jul-27 21:33N 40°47' W 074°00'3 2.7
2015-Jul-27 20:33N 40°49' W 073°58'0 0.0
2015-Jul-27 19:33N 40°49' W 073°58'0 0.2
2015-Jul-27 18:31N 40°49' W 073°58'0 0.0
2015-Jul-27 17:32N 40°49' W 073°58'0 0.0
2015-Jul-27 16:29N 40°49' W 073°58'0 0.0
2015-Jul-27 15:33N 40°49' W 073°58'0 0.0
2015-Jul-27 14:33N 40°49' W 073°58'0 0.0
2015-Jul-27 13:31N 40°49' W 073°58'0 0.1
2015-Jul-27 12:32N 40°49' W 073°58'0 0.2
2015-Jul-27 11:32N 40°49' W 073°58'0 0.0
2015-Jul-27 10:33N 40°49' W 073°58'0 0.0
2015-Jul-27 09:31N 40°49' W 073°58'0 0.0
2015-Jul-27 08:31N 40°49' W 073°58'0 0.1
2015-Jul-27 07:32N 40°49' W 073°58'0 0.0
2015-Jul-27 06:33N 40°49' W 073°58'0 0.0
2015-Jul-27 05:33N 40°49' W 073°58'0 0.0
2015-Jul-27 04:31N 40°49' W 073°58'0 0.0
2015-Jul-27 03:32N 40°49' W 073°58'0 0.2
2015-Jul-27 02:32N 40°49' W 073°58'0 0.1
2015-Jul-27 01:33N 40°49' W 073°58'0 0.0
2015-Jul-27 00:31N 40°49' W 073°58'0 0.0
2015-Jul-26 23:31N 40°49' W 073°58'0 0.0
2015-Jul-26 22:32N 40°49' W 073°58'0 0.0
2015-Jul-26 21:30N 40°49' W 073°58'0 0.0
2015-Jul-26 20:33N 40°49' W 073°58'0 0.0
2015-Jul-26 19:31N 40°49' W 073°58'0 0.0
2015-Jul-26 18:32N 40°49' W 073°58'0 0.2
2015-Jul-26 17:26N 40°49' W 073°58'0 0.0
2015-Jul-26 16:33N 40°49' W 073°58'0 0.0
2015-Jul-26 15:31N 40°49' W 073°58'0 0.0
2015-Jul-26 14:31N 40°49' W 073°58'0 0.0
2015-Jul-26 13:32N 40°49' W 073°58'0 0.0
2015-Jul-26 12:33N 40°49' W 073°58'0 0.2
2015-Jul-26 11:33N 40°49' W 073°58'0 0.0
2015-Jul-26 10:31N 40°49' W 073°58'0 0.0
2015-Jul-26 09:32N 40°49' W 073°58'0 0.0
2015-Jul-26 08:32N 40°49' W 073°58'0 0.0
2015-Jul-26 07:33N 40°49' W 073°58'0 0.2
2015-Jul-26 06:34N 40°49' W 073°58'0 0.0
2015-Jul-26 05:31N 40°49' W 073°58'0 0.0
2015-Jul-26 04:32N 40°49' W 073°58'0 0.0
2015-Jul-26 03:32N 40°49' W 073°58'0 0.0
2015-Jul-26 02:33N 40°49' W 073°58'0 0.1
2015-Jul-26 01:31N 40°49' W 073°58'0 0.1
2015-Jul-26 00:31N 40°49' W 073°58'0 0.1
2015-Jul-25 23:32N 40°49' W 073°58'0 0.0
2015-Jul-25 22:33N 40°49' W 073°58'0 0.0
2015-Jul-25 21:33N 40°49' W 073°58'0 0.0
2015-Jul-25 20:31N 40°49' W 073°58'0 0.0
2015-Jul-25 19:32N 40°49' W 073°58'0 0.0
2015-Jul-25 18:32N 40°49' W 073°58'0 0.3
2015-Jul-25 17:33N 40°49' W 073°58'0 0.0
2015-Jul-25 16:31N 40°49' W 073°58'0 0.0
2015-Jul-25 15:31N 40°49' W 073°58'0 0.0
2015-Jul-25 14:29N 40°49' W 073°58'0 0.0
2015-Jul-25 13:33N 40°49' W 073°58'0 0.0
2015-Jul-25 12:33N 40°49' W 073°58'0 0.0
2015-Jul-25 11:31N 40°49' W 073°58'0 0.0
2015-Jul-25 10:32N 40°49' W 073°58'0 0.2
2015-Jul-25 09:32N 40°49' W 073°58'0 0.0
2015-Jul-25 08:33N 40°49' W 073°58'0 0.0
2015-Jul-25 07:28N 40°49' W 073°58'0 0.2
2015-Jul-25 06:31N 40°49' W 073°58'0 0.0
2015-Jul-25 05:32N 40°49' W 073°58'0 0.0
2015-Jul-25 04:33N 40°49' W 073°58'0 0.0
2015-Jul-25 03:33N 40°49' W 073°58'0 0.0
2015-Jul-25 02:31N 40°49' W 073°58'0 0.0
2015-Jul-25 01:32N 40°49' W 073°58'0 0.0
2015-Jul-25 00:32N 40°49' W 073°58'0 0.0
2015-Jul-24 23:33N 40°49' W 073°58'0 0.2
2015-Jul-24 22:31N 40°49' W 073°58'0 0.0
2015-Jul-24 21:31N 40°49' W 073°58'0 0.0
2015-Jul-24 20:32N 40°49' W 073°58'4 4.3
2015-Jul-24 19:33N 40°45' W 074°01'6 6.2
2015-Jul-24 18:33N 40°39' W 074°03'0 0.1
2015-Jul-24 17:31N 40°39' W 074°03'0 0.1
2015-Jul-24 16:31N 40°39' W 074°03'0 0.1
2015-Jul-24 15:32N 40°39' W 074°03'0 0.0
2015-Jul-24 14:33N 40°39' W 074°03'0 0.0
2015-Jul-24 13:33N 40°39' W 074°03'0 0.0
2015-Jul-24 12:31N 40°39' W 074°03'0 0.0
2015-Jul-24 11:32N 40°39' W 074°03'0 0.0
2015-Jul-24 10:32N 40°39' W 074°03'0 0.0
2015-Jul-24 09:33N 40°39' W 074°03'0 0.0
2015-Jul-24 08:31N 40°39' W 074°03'0 0.1
2015-Jul-24 07:31N 40°39' W 074°03'0 0.1
2015-Jul-24 06:32N 40°39' W 074°03'0 0.1
2015-Jul-24 05:33N 40°39' W 074°03'0 0.1
2015-Jul-24 04:33N 40°39' W 074°03'0 0.0
2015-Jul-24 03:31N 40°39' W 074°03'0 0.0
2015-Jul-24 02:31N 40°39' W 074°03'0 0.0
2015-Jul-24 01:32N 40°39' W 074°03'0 0.0
2015-Jul-24 00:33N 40°39' W 074°03'0 0.0
2015-Jul-23 23:33N 40°39' W 074°03'0 0.0
2015-Jul-23 22:31N 40°39' W 074°03'0 0.0
2015-Jul-23 21:32N 40°39' W 074°03'0 0.1
2015-Jul-23 20:32N 40°39' W 074°03'0 0.0
2015-Jul-23 19:33N 40°39' W 074°03'0 0.0
2015-Jul-23 18:31N 40°39' W 074°03'0 0.0
2015-Jul-23 17:31N 40°39' W 074°03'0 0.0
2015-Jul-23 16:32N 40°39' W 074°03'0 0.1
2015-Jul-23 15:33N 40°39' W 074°03'0 0.1
2015-Jul-23 14:33N 40°39' W 074°03'0 0.0
2015-Jul-23 13:31N 40°39' W 074°03'0 0.0
2015-Jul-23 12:31N 40°39' W 074°03'0 0.0
2015-Jul-23 11:32N 40°39' W 074°03'0 0.0
2015-Jul-23 10:33N 40°39' W 074°03'0 0.0
2015-Jul-23 09:33N 40°39' W 074°03'0 0.0
2015-Jul-23 08:31N 40°39' W 074°03'0 0.0
2015-Jul-23 07:32N 40°39' W 074°03'0 0.0
2015-Jul-23 06:32N 40°39' W 074°03'0 0.0
2015-Jul-23 05:33N 40°39' W 074°03'0 0.0
2015-Jul-23 04:33N 40°39' W 074°03'0 0.0
2015-Jul-23 03:31N 40°39' W 074°03'0 0.0
2015-Jul-23 02:32N 40°39' W 074°03'0 0.0
2015-Jul-23 01:32N 40°39' W 074°03'0 0.0
2015-Jul-23 00:33N 40°39' W 074°03'0 0.0
2015-Jul-22 23:31N 40°39' W 074°03'0 0.0
2015-Jul-22 22:31N 40°39' W 074°03'0 0.0
2015-Jul-22 21:32N 40°39' W 074°03'0 0.5
2015-Jul-22 20:33N 40°39' W 074°02'2 1.7
2015-Jul-22 19:31N 40°40' W 074°00'0 0.0
2015-Jul-22 18:31N 40°40' W 074°00'0 0.0
2015-Jul-22 17:32N 40°40' W 074°00'0 0.0
2015-Jul-22 16:33N 40°40' W 074°00'0 0.0
2015-Jul-22 15:33N 40°40' W 074°00'2 2.1
2015-Jul-22 14:33N 40°39' W 074°03'0 0.0
2015-Jul-22 13:31N 40°39' W 074°03'0 0.0
2015-Jul-22 12:32N 40°39' W 074°03'0 0.0
2015-Jul-22 11:32N 40°39' W 074°03'0 0.0
2015-Jul-22 10:33N 40°39' W 074°03'  

Dump ship's entire track history